createdAt,value
2019-05-16T00:00:58.766Z,8.37
2019-05-16T00:03:28.009Z,7.37
2019-05-16T00:05:58.259Z,7.00
2019-05-16T00:08:25.139Z,7.10
2019-05-16T00:10:52.750Z,6.83
2019-05-16T00:13:20.280Z,6.87
2019-05-16T00:15:48.165Z,6.90
2019-05-16T00:18:17.831Z,7.33
2019-05-16T00:20:45.670Z,7.30
2019-05-16T00:23:13.229Z,7.47
2019-05-16T00:25:40.804Z,8.20
2019-05-16T00:28:08.937Z,7.80
2019-05-16T00:30:38.958Z,7.77
2019-05-16T00:33:08.294Z,7.83
2019-05-16T00:35:35.416Z,7.30
2019-05-16T00:38:03.042Z,8.20
2019-05-16T00:40:30.570Z,8.27
2019-05-16T00:42:58.901Z,7.90
2019-05-16T00:45:29.176Z,8.43
2019-05-16T00:47:58.294Z,8.27
2019-05-16T00:50:25.473Z,8.20
2019-05-16T00:52:53.045Z,8.40
2019-05-16T00:55:20.597Z,8.53
2019-05-16T00:57:49.453Z,8.77
2019-05-16T01:00:21.255Z,9.17
2019-05-16T01:02:48.926Z,8.53
2019-05-16T01:05:18.927Z,9.10
2019-05-16T01:07:47.884Z,8.03
2019-05-16T01:10:15.280Z,8.60
2019-05-16T01:12:42.842Z,8.33
2019-05-16T01:15:10.461Z,8.13
2019-05-16T01:17:39.093Z,8.70
2019-05-16T01:20:08.514Z,8.50
2019-05-16T01:22:38.559Z,8.03
2019-05-16T01:25:05.913Z,8.80
2019-05-16T01:27:33.453Z,8.20
2019-05-16T01:30:01.051Z,8.83
2019-05-16T01:32:29.159Z,8.07
2019-05-16T01:34:58.915Z,8.43
2019-05-16T01:37:27.869Z,8.73
2019-05-16T01:39:58.593Z,8.50
2019-05-16T01:42:27.857Z,8.83
2019-05-16T01:44:57.694Z,8.43
2019-05-16T01:47:24.758Z,9.17
2019-05-16T01:49:52.334Z,8.90
2019-05-16T01:52:19.869Z,9.10
2019-05-16T01:54:48.110Z,9.10
2019-05-16T01:57:17.925Z,9.43
2019-05-16T01:59:45.141Z,8.90
2019-05-16T02:02:12.738Z,9.20
2019-05-16T02:04:40.280Z,9.57
2019-05-16T02:07:08.551Z,10.23
2019-05-16T02:09:38.252Z,8.67
2019-05-16T02:12:08.200Z,9.77
2019-05-16T02:14:35.031Z,9.17
2019-05-16T02:17:02.582Z,9.40
2019-05-16T02:19:30.173Z,9.43
2019-05-16T02:21:59.627Z,9.13
2019-05-16T02:24:28.440Z,9.50
2019-05-16T02:26:58.791Z,9.47
2019-05-16T02:29:25.648Z,9.47
2019-05-16T02:31:53.189Z,9.37
2019-05-16T02:34:21.708Z,10.70
2019-05-16T02:37:10.203Z,9.53
2019-05-16T02:39:21.117Z,9.63
2019-05-16T02:41:51.812Z,9.30
2019-05-16T02:44:24.095Z,9.77
2019-05-16T02:46:47.156Z,9.63
2019-05-16T02:49:14.688Z,9.60
2019-05-16T02:51:42.291Z,8.73
2019-05-16T02:54:11.046Z,9.73
2019-05-16T02:56:41.442Z,9.33
2019-05-16T02:59:11.675Z,8.60
2019-05-16T03:01:40.664Z,8.80
2019-05-16T03:04:07.063Z,8.73
2019-05-16T03:06:35.700Z,8.77
2019-05-16T03:09:05.634Z,9.27
2019-05-16T03:11:33.852Z,9.20
2019-05-16T03:14:03.753Z,9.57
2019-05-16T03:16:32.852Z,9.43
2019-05-16T03:19:02.454Z,8.77
2019-05-16T03:21:32.715Z,8.83
2019-05-16T03:24:00.966Z,10.17
2019-05-16T03:26:31.522Z,8.87
2019-05-16T03:29:00.948Z,9.43
2019-05-16T03:31:27.834Z,9.57
2019-05-16T03:33:59.874Z,9.20
2019-05-16T03:36:25.784Z,8.67
2019-05-16T03:38:53.471Z,9.30
2019-05-16T03:41:21.509Z,9.30
2019-05-16T03:43:50.748Z,8.63
2019-05-16T03:46:21.451Z,8.67
2019-05-16T03:48:51.542Z,9.50
2019-05-16T03:51:17.381Z,9.00
2019-05-16T03:53:45.008Z,9.40
2019-05-16T03:56:12.576Z,9.87
2019-05-16T03:58:41.583Z,10.03
2019-05-16T04:01:11.165Z,9.60
2019-05-16T04:03:41.307Z,9.27
2019-05-16T04:06:11.552Z,9.13
2019-05-16T04:08:40.999Z,9.80
2019-05-16T04:11:07.250Z,9.47
2019-05-16T04:13:34.855Z,9.60
2019-05-16T04:16:02.386Z,9.20
2019-05-16T04:18:31.860Z,9.30
2019-05-16T04:21:01.035Z,10.13
2019-05-16T04:23:31.474Z,9.53
2019-05-16T04:26:00.667Z,9.77
2019-05-16T04:28:27.392Z,8.73
2019-05-16T04:30:54.932Z,10.80
2019-05-16T04:33:22.809Z,9.93
2019-05-16T04:35:52.653Z,9.97
2019-05-16T04:38:31.610Z,9.97
2019-05-16T04:40:51.746Z,10.00
2019-05-16T04:43:21.577Z,10.43
2019-05-16T04:45:51.683Z,9.87
2019-05-16T04:48:17.450Z,9.73
2019-05-16T04:50:45.035Z,8.93
2019-05-16T04:53:12.627Z,8.87
2019-05-16T04:55:42.066Z,9.10
2019-05-16T04:58:10.630Z,8.67
2019-05-16T05:00:41.824Z,9.13
2019-05-16T05:03:07.646Z,8.97
2019-05-16T05:05:35.210Z,9.33
2019-05-16T05:08:03.163Z,8.80
2019-05-16T05:10:31.366Z,9.03
2019-05-16T05:13:01.465Z,8.60
2019-05-16T05:15:30.561Z,8.43
2019-05-16T05:18:00.438Z,8.90
2019-05-16T05:20:27.082Z,8.17
2019-05-16T05:22:54.653Z,8.63
2019-05-16T05:25:22.127Z,8.00
2019-05-16T05:27:50.123Z,9.37
2019-05-16T05:30:19.831Z,8.47
2019-05-16T05:32:47.324Z,9.43
2019-05-16T05:35:14.965Z,8.40
2019-05-16T05:37:42.714Z,8.97
2019-05-16T05:40:10.920Z,8.20
2019-05-16T05:42:41.676Z,8.17
2019-05-16T05:45:11.205Z,8.03
2019-05-16T05:47:40.276Z,7.30
2019-05-16T05:50:10.900Z,7.70
2019-05-16T05:52:40.844Z,7.43
2019-05-16T05:55:10.357Z,7.80
2019-05-16T05:57:40.071Z,7.87
2019-05-16T06:00:09.939Z,8.17
2019-05-16T06:02:39.991Z,7.40
2019-05-16T06:05:07.001Z,6.80
2019-05-16T06:07:34.646Z,7.70
2019-05-16T06:10:02.338Z,7.10
2019-05-16T06:12:30.481Z,7.20
2019-05-16T06:15:06.059Z,7.33
2019-05-16T06:17:27.659Z,7.47
2019-05-16T06:19:55.190Z,6.50
2019-05-16T06:22:23.077Z,7.07
2019-05-16T06:24:50.673Z,6.97
2019-05-16T06:27:20.665Z,6.93
2019-05-16T06:29:49.598Z,7.03
2019-05-16T06:32:16.983Z,6.90
2019-05-16T06:34:44.730Z,6.63
2019-05-16T06:37:12.382Z,6.70
2019-05-16T06:39:45.098Z,6.30
2019-05-16T06:42:09.883Z,7.53
2019-05-16T06:44:39.977Z,6.57
2019-05-16T06:47:17.050Z,7.33
2019-05-16T06:49:36.685Z,6.60
2019-05-16T06:52:04.258Z,7.63
2019-05-16T06:54:32.033Z,6.47
2019-05-16T06:57:00.125Z,7.23
2019-05-16T06:59:29.766Z,6.87
2019-05-16T07:01:57.306Z,7.47
2019-05-16T07:04:24.875Z,7.67
2019-05-16T07:06:58.941Z,7.57
2019-05-16T07:09:21.996Z,7.30
2019-05-16T07:11:50.429Z,7.10
2019-05-16T07:14:22.516Z,35.23
2019-05-16T07:16:49.553Z,12.23
2019-05-16T07:19:16.890Z,6.97
2019-05-16T07:21:44.489Z,7.07
2019-05-16T07:24:12.062Z,6.73
2019-05-16T07:26:40.491Z,7.10
2019-05-16T07:29:10.800Z,8.13
2019-05-16T07:31:37.864Z,7.43
2019-05-16T07:34:05.450Z,7.50
2019-05-16T07:36:33.010Z,7.30
2019-05-16T07:39:00.623Z,7.27
2019-05-16T07:41:30.899Z,6.73
2019-05-16T07:43:57.522Z,7.27
2019-05-16T07:46:25.327Z,6.80
2019-05-16T07:48:52.895Z,6.93
2019-05-16T07:51:20.664Z,7.07
2019-05-16T07:53:50.553Z,7.93
2019-05-16T07:56:20.282Z,7.27
2019-05-16T07:58:47.300Z,7.43
2019-05-16T08:01:14.889Z,8.20
2019-05-16T08:03:44.192Z,7.10
2019-05-16T08:06:11.826Z,7.33
2019-05-16T08:08:40.382Z,7.03
2019-05-16T08:11:08.046Z,7.57
2019-05-16T08:13:35.637Z,9.10
2019-05-16T08:16:03.239Z,9.47
2019-05-16T08:18:31.012Z,8.03
2019-05-16T08:21:00.798Z,8.53
2019-05-16T08:23:30.460Z,7.97
2019-05-16T08:25:57.510Z,7.60
2019-05-16T08:28:25.123Z,8.23
2019-05-16T08:30:53.250Z,7.60
2019-05-16T08:33:22.088Z,7.80
2019-05-16T08:35:51.582Z,8.33
2019-05-16T08:38:21.437Z,8.60
2019-05-16T08:43:21.406Z,8.53
2019-05-16T08:45:47.508Z,8.30
2019-05-16T08:48:15.250Z,7.73
2019-05-16T08:50:50.324Z,7.77
2019-05-16T08:53:14.959Z,7.47
2019-05-16T08:55:43.312Z,7.20
2019-05-16T08:58:13.575Z,7.30
2019-05-16T09:00:41.930Z,7.17
2019-05-16T09:03:12.368Z,7.80
2019-05-16T09:05:43.623Z,7.57
2019-05-16T09:08:08.627Z,7.60
2019-05-16T09:10:35.524Z,9.27
2019-05-16T09:10:51.629Z,8.13
2019-05-16T09:13:07.181Z,7.90
2019-05-16T09:15:38.754Z,12.07
2019-05-16T09:18:07.262Z,6.90
2019-05-16T09:20:33.775Z,8.20
2019-05-16T09:23:01.338Z,6.63
2019-05-16T09:25:28.989Z,7.77
2019-05-16T09:27:56.998Z,7.60
2019-05-16T09:30:27.375Z,7.70
2019-05-16T09:32:54.186Z,7.40
2019-05-16T09:35:21.822Z,7.00
2019-05-16T09:37:49.372Z,7.43
2019-05-16T09:40:18.538Z,8.33
2019-05-16T09:42:47.412Z,8.40
2019-05-16T09:45:17.043Z,8.03
2019-05-16T09:47:48.205Z,7.23
2019-05-16T09:50:17.239Z,13.73
2019-05-16T09:52:44.350Z,7.80
2019-05-16T09:55:12.282Z,8.37
2019-05-16T09:57:39.901Z,8.23
2019-05-16T10:00:13.644Z,7.93
2019-05-16T10:02:41.727Z,7.97
2019-05-16T10:05:13.444Z,7.57
2019-05-16T10:07:39.250Z,8.23
2019-05-16T10:10:07.048Z,8.63
2019-05-16T10:12:36.954Z,7.63
2019-05-16T10:15:07.279Z,8.00
2019-05-16T10:17:36.784Z,7.77
2019-05-16T10:20:03.769Z,7.70
2019-05-16T10:22:31.413Z,8.27
2019-05-16T10:24:59.106Z,8.27
2019-05-16T10:27:26.686Z,13.27
2019-05-16T10:30:00.600Z,8.60
2019-05-16T10:32:23.804Z,7.87
2019-05-16T10:34:51.352Z,7.90
2019-05-16T10:37:19.010Z,8.80
2019-05-16T10:39:47.051Z,8.50
2019-05-16T10:42:24.915Z,7.17
2019-05-16T10:44:44.154Z,7.90
2019-05-16T10:47:11.811Z,7.30
2019-05-16T10:49:41.873Z,7.10
2019-05-16T10:52:09.036Z,7.30
2019-05-16T10:54:37.083Z,7.27
2019-05-16T10:57:04.939Z,7.33
2019-05-16T11:02:02.988Z,6.77
2019-05-16T11:04:52.716Z,6.13
2019-05-16T11:07:00.025Z,6.73
2019-05-16T11:09:27.616Z,7.60
2019-05-16T11:11:57.114Z,6.30
2019-05-16T11:14:27.959Z,6.57
2019-05-16T11:16:54.155Z,6.70
2019-05-16T11:19:24.715Z,6.60
2019-05-16T11:21:51.699Z,6.90
2019-05-16T11:24:19.257Z,6.60
2019-05-16T11:26:47.399Z,6.37
2019-05-16T11:29:16.466Z,6.23
2019-05-16T11:31:46.637Z,5.17
2019-05-16T11:34:13.690Z,6.23
2019-05-16T11:36:41.263Z,6.07
2019-05-16T11:39:08.962Z,5.93
2019-05-16T11:41:36.499Z,5.50
2019-05-16T11:44:06.425Z,4.57
2019-05-16T11:46:33.514Z,4.77
2019-05-16T11:49:01.126Z,4.80
2019-05-16T11:51:28.758Z,4.83
2019-05-16T11:53:59.905Z,4.10
2019-05-16T11:56:25.843Z,3.97
2019-05-16T11:58:53.420Z,4.33
2019-05-16T12:01:21.141Z,4.40
2019-05-16T12:03:48.706Z,4.37
2019-05-16T12:06:17.089Z,4.70
2019-05-16T12:08:46.767Z,3.97
2019-05-16T12:11:14.229Z,4.50
2019-05-16T12:13:41.849Z,5.07
2019-05-16T12:16:09.593Z,4.77
2019-05-16T12:18:37.461Z,4.50
2019-05-16T12:21:07.323Z,4.17
2019-05-16T12:23:37.311Z,5.20
2019-05-16T12:26:10.110Z,4.77
2019-05-16T12:28:37.725Z,4.67
2019-05-16T12:31:07.154Z,4.63
2019-05-16T12:33:37.524Z,5.37
2019-05-16T12:36:07.070Z,5.23
2019-05-16T12:38:34.067Z,5.00
2019-05-16T12:41:01.655Z,4.53
2019-05-16T12:43:44.929Z,4.70
2019-05-16T12:45:58.623Z,5.70
2019-05-16T12:48:26.198Z,5.70
2019-05-16T12:50:53.807Z,6.43
2019-05-16T12:53:23.614Z,5.80
2019-05-16T12:55:50.890Z,5.57
2019-05-16T12:58:24.875Z,7.20
2019-05-16T13:00:54.059Z,5.80
2019-05-16T13:03:17.582Z,6.93
2019-05-16T13:05:47.552Z,6.40
2019-05-16T13:08:17.229Z,7.03
2019-05-16T13:10:46.804Z,7.13
2019-05-16T13:13:13.488Z,6.03
2019-05-16T13:15:42.367Z,5.67
2019-05-16T13:18:10.190Z,6.17
2019-05-16T13:20:41.163Z,6.30
2019-05-16T13:23:14.388Z,6.90
2019-05-16T13:25:36.942Z,6.90
2019-05-16T13:28:04.809Z,7.27
2019-05-16T13:30:32.453Z,7.00
2019-05-16T13:33:00.055Z,7.73
2019-05-16T13:35:27.698Z,6.83
2019-05-16T13:37:57.821Z,8.13
2019-05-16T13:40:24.762Z,7.47
2019-05-16T13:42:52.379Z,7.60
2019-05-16T13:45:19.959Z,7.47
2019-05-16T13:47:48.625Z,7.63
2019-05-16T13:50:17.522Z,7.30
2019-05-16T13:52:47.780Z,7.23
2019-05-16T13:55:16.696Z,6.23
2019-05-16T13:57:43.955Z,24.50
2019-05-16T14:00:12.241Z,6.37
2019-05-16T14:02:39.853Z,6.17
2019-05-16T14:05:09.747Z,6.47
2019-05-16T14:07:37.951Z,6.07
2019-05-16T14:10:06.415Z,6.40
2019-05-16T14:12:36.499Z,5.73
2019-05-16T14:15:04.371Z,6.00
2019-05-16T14:17:31.965Z,5.73
2019-05-16T14:19:59.553Z,5.83
2019-05-16T14:22:27.801Z,5.60
2019-05-16T14:24:57.993Z,5.33
2019-05-16T14:27:26.835Z,5.57
2019-05-16T14:29:57.590Z,5.80
2019-05-16T14:32:24.049Z,4.70
2019-05-16T14:34:52.001Z,5.47
2019-05-16T14:37:19.759Z,5.37
2019-05-16T14:39:48.756Z,5.63
2019-05-16T14:42:17.857Z,5.40
2019-05-16T14:45:04.655Z,5.90
2019-05-16T14:47:17.575Z,4.57
2019-05-16T14:49:44.605Z,4.87
2019-05-16T14:52:12.201Z,17.73
2019-05-16T14:54:39.843Z,7.17
2019-05-16T14:57:07.492Z,7.23
2019-05-16T14:59:36.474Z,5.70
2019-05-16T15:02:06.898Z,6.07
2019-05-16T15:04:33.716Z,6.33
2019-05-16T15:07:01.286Z,6.73
2019-05-16T15:09:28.884Z,7.03
2019-05-16T15:11:58.080Z,6.77
2019-05-16T15:14:28.068Z,7.13
2019-05-16T15:16:57.428Z,7.80
2019-05-16T15:19:24.775Z,8.00
2019-05-16T15:21:52.376Z,7.93
2019-05-16T15:24:20.153Z,7.07
2019-05-16T15:26:47.774Z,6.87
2019-05-16T15:29:16.467Z,6.73
2019-05-16T15:31:46.564Z,6.10
2019-05-16T15:34:13.693Z,5.37
2019-05-16T15:36:41.291Z,5.70
2019-05-16T15:39:08.891Z,5.03
2019-05-16T15:41:36.765Z,5.13
2019-05-16T15:44:04.484Z,5.97
2019-05-16T15:46:32.293Z,7.23
2019-05-16T15:49:00.460Z,8.10
2019-05-16T15:51:28.725Z,7.80
2019-05-16T15:53:57.257Z,7.90
2019-05-16T15:56:27.086Z,6.90
2019-05-16T15:58:54.718Z,6.63
2019-05-16T16:01:22.300Z,7.23
2019-05-16T16:03:50.100Z,7.80
2019-05-16T16:06:17.938Z,7.97
2019-05-16T16:08:46.980Z,8.47
2019-05-16T16:11:17.143Z,8.57
2019-05-16T16:13:44.503Z,8.83
2019-05-16T16:16:12.287Z,9.00
2019-05-16T16:18:39.846Z,8.97
2019-05-16T16:21:07.754Z,9.40
2019-05-16T16:23:37.319Z,8.40
2019-05-16T16:26:07.037Z,8.57
2019-05-16T16:28:34.391Z,7.77
2019-05-16T16:31:02.018Z,8.10
2019-05-16T16:33:30.197Z,8.47
2019-05-16T16:35:57.978Z,8.63
2019-05-16T16:38:25.567Z,8.90
2019-05-16T16:40:53.183Z,8.90
2019-05-16T16:43:23.666Z,7.87
2019-05-16T16:46:04.072Z,7.97
2019-05-16T16:48:19.647Z,6.43
2019-05-16T16:50:47.236Z,7.00
2019-05-16T16:53:17.458Z,6.53
2019-05-16T16:55:44.433Z,6.30
2019-05-16T16:58:12.036Z,7.20
2019-05-16T17:00:39.603Z,7.93
2019-05-16T17:03:10.341Z,8.60
2019-05-16T17:05:37.172Z,10.47
2019-05-16T17:08:07.381Z,10.97
2019-05-16T17:10:34.386Z,11.27
2019-05-16T17:13:02.020Z,9.97
2019-05-16T17:15:29.867Z,10.73
2019-05-16T17:18:00.686Z,12.40
2019-05-16T17:20:28.323Z,12.97
2019-05-16T17:22:57.228Z,16.13
2019-05-16T17:25:26.878Z,16.30
2019-05-16T17:27:54.395Z,16.57
2019-05-16T17:30:22.623Z,15.97
2019-05-16T17:32:50.284Z,18.33
2019-05-16T17:35:18.932Z,13.43
2019-05-16T17:37:46.890Z,13.27
2019-05-16T17:40:17.689Z,12.67
2019-05-16T17:42:44.406Z,12.80
2019-05-16T17:45:12.768Z,14.40
2019-05-16T17:47:40.406Z,14.97
2019-05-16T17:50:09.033Z,44.13
2019-05-16T17:52:37.033Z,16.37
2019-05-16T17:55:07.202Z,14.93
2019-05-16T17:57:36.950Z,14.50
2019-05-16T18:00:06.864Z,13.13
2019-05-16T18:02:37.345Z,12.13
2019-05-16T18:05:04.267Z,13.53
2019-05-16T18:07:31.959Z,12.93
2019-05-16T18:09:59.648Z,13.07
2019-05-16T18:12:27.668Z,13.30
2019-05-16T18:14:57.131Z,14.17
2019-05-16T18:17:26.740Z,13.93
2019-05-16T18:19:54.368Z,15.40
2019-05-16T18:22:22.102Z,13.97
2019-05-16T18:24:49.709Z,14.57
2019-05-16T18:27:17.368Z,14.47
2019-05-16T18:29:46.961Z,14.43
2019-05-16T18:32:16.877Z,14.87
2019-05-16T18:34:44.079Z,15.37
2019-05-16T18:37:11.717Z,14.70
2019-05-16T18:39:39.526Z,16.90
2019-05-16T18:42:07.166Z,16.40
2019-05-16T18:44:36.642Z,15.93
2019-05-16T18:47:08.417Z,15.73
2019-05-16T18:49:33.999Z,16.63
2019-05-16T18:52:01.619Z,16.27
2019-05-16T18:54:29.415Z,16.47
2019-05-16T18:56:57.862Z,17.03
2019-05-16T18:59:26.182Z,16.83
2019-05-16T19:01:54.082Z,17.20
2019-05-16T19:04:21.674Z,18.87
2019-05-16T19:06:49.377Z,17.40
2019-05-16T19:09:17.067Z,18.73
2019-05-16T19:11:45.613Z,18.70
2019-05-16T19:14:13.206Z,17.07
2019-05-16T19:16:41.026Z,19.17
2019-05-16T19:19:08.863Z,18.23
2019-05-16T19:21:38.885Z,19.00
2019-05-16T19:24:06.999Z,19.13
2019-05-16T19:26:37.359Z,19.13
2019-05-16T19:29:06.509Z,21.30
2019-05-16T19:31:38.911Z,20.93
2019-05-16T19:34:07.001Z,20.90
2019-05-16T19:36:36.176Z,20.83
2019-05-16T19:39:06.728Z,22.07
2019-05-16T19:41:38.638Z,22.47
2019-05-16T19:44:06.624Z,21.27
2019-05-16T19:46:33.709Z,21.63
2019-05-16T19:49:01.337Z,22.60
2019-05-16T19:51:32.363Z,21.57
2019-05-16T19:53:59.912Z,22.23
2019-05-16T19:56:27.794Z,21.17
2019-05-16T19:58:57.146Z,23.23
2019-05-16T20:01:27.051Z,21.93
2019-05-16T20:03:56.430Z,22.20
2019-05-16T20:06:27.488Z,23.37
2019-05-16T20:08:58.906Z,23.63
2019-05-16T20:11:27.634Z,23.73
2019-05-16T20:13:56.771Z,23.60
2019-05-16T20:16:27.136Z,24.47
2019-05-16T20:18:56.050Z,25.53
2019-05-16T20:21:23.617Z,23.50
2019-05-16T20:23:51.383Z,22.60
2019-05-16T20:26:19.184Z,22.60
2019-05-16T20:28:47.555Z,21.53
2019-05-16T20:31:17.095Z,23.70
2019-05-16T20:33:46.866Z,23.40
2019-05-16T20:36:17.505Z,24.13
2019-05-16T20:38:48.183Z,24.43
2019-05-16T20:41:17.030Z,25.53
2019-05-16T20:43:47.340Z,26.00
2019-05-16T20:46:17.142Z,24.50
2019-05-16T20:48:44.901Z,23.77
2019-05-16T20:51:12.735Z,23.77
2019-05-16T20:53:40.482Z,25.40
2019-05-16T20:56:08.284Z,23.90
2019-05-16T20:58:38.635Z,23.67
2019-05-16T21:01:07.005Z,25.23
2019-05-16T21:03:34.793Z,26.17
2019-05-16T21:06:08.540Z,26.17
2019-05-16T21:08:34.478Z,25.67
2019-05-16T21:11:02.168Z,26.47
2019-05-16T21:13:30.108Z,24.83
2019-05-16T21:15:57.821Z,25.33
2019-05-16T21:18:25.606Z,24.17
2019-05-16T21:20:53.346Z,24.17
2019-05-16T21:23:21.010Z,27.53
2019-05-16T21:25:48.924Z,28.53
2019-05-16T21:28:19.856Z,28.13
2019-05-16T21:30:48.958Z,28.80
2019-05-16T21:33:18.631Z,29.30
2019-05-16T21:35:46.978Z,26.60
2019-05-16T21:38:17.824Z,26.37
2019-05-16T21:40:47.873Z,27.03
2019-05-16T21:43:34.983Z,27.87
2019-05-16T21:46:02.575Z,25.87
2019-05-16T21:48:30.187Z,25.07
2019-05-16T21:50:57.778Z,26.10
2019-05-16T21:53:27.204Z,25.53
2019-05-16T21:55:56.395Z,26.30
2019-05-16T21:58:23.994Z,24.23
2019-05-16T22:00:56.717Z,23.30
2019-05-16T22:03:26.826Z,21.73
2019-05-16T22:05:54.087Z,22.63
2019-05-16T22:08:21.644Z,20.80
2019-05-16T22:10:49.408Z,23.17
2019-05-16T22:13:16.975Z,22.60
2019-05-16T22:15:46.420Z,27.23
2019-05-16T22:18:16.392Z,26.93
2019-05-16T22:20:43.640Z,26.30
2019-05-16T22:23:11.202Z,27.70
2019-05-16T22:25:38.865Z,25.40
2019-05-16T22:28:07.241Z,25.03
2019-05-16T22:30:36.596Z,25.20
2019-05-16T22:33:08.864Z,25.13
2019-05-16T22:35:33.866Z,26.47
2019-05-16T22:38:01.454Z,26.43
2019-05-16T22:40:29.050Z,27.97
2019-05-16T22:42:57.580Z,29.90
2019-05-16T22:45:27.054Z,28.83
2019-05-16T22:47:54.761Z,29.03
2019-05-16T22:50:22.376Z,28.40
2019-05-16T22:52:49.931Z,27.47
2019-05-16T22:55:17.825Z,28.07
2019-05-16T22:57:47.257Z,30.97
2019-05-16T23:00:20.145Z,29.17
2019-05-16T23:02:48.174Z,29.30
2019-05-16T23:05:16.797Z,23.47
2019-05-16T23:07:47.161Z,25.77
2019-05-16T23:10:16.488Z,23.77
2019-05-16T23:12:44.124Z,23.97
2019-05-16T23:15:14.204Z,24.57
2019-05-16T23:17:42.040Z,23.83
2019-05-16T23:20:12.002Z,20.50
2019-05-16T23:22:39.731Z,22.10
2019-05-16T23:25:07.429Z,22.17
2019-05-16T23:27:36.810Z,23.70
2019-05-16T23:30:07.392Z,20.53
2019-05-16T23:32:36.501Z,22.93
2019-05-16T23:35:06.643Z,22.33
2019-05-16T23:37:37.009Z,24.07
2019-05-16T23:40:06.358Z,25.07
2019-05-16T23:42:34.137Z,25.80
2019-05-16T23:45:01.968Z,23.70
2019-05-16T23:50:17.216Z,22.70
2019-05-16T23:52:47.572Z,23.97
2019-05-16T23:55:37.257Z,23.70
2019-05-16T23:58:07.283Z,23.27
